createdAt,value
2023-01-31T00:01:40.385Z,23.40
2023-01-31T00:04:11.429Z,21.13
2023-01-31T00:06:43.589Z,9.70
2023-01-31T00:09:11.895Z,12.93
2023-01-31T00:11:39.264Z,12.67
2023-01-31T00:14:07.412Z,14.87
2023-01-31T00:16:35.196Z,13.13
2023-01-31T00:19:02.598Z,16.13
2023-01-31T00:21:30.772Z,13.50
2023-01-31T00:23:58.415Z,20.63
2023-01-31T00:26:29.804Z,19.07
2023-01-31T00:28:58.533Z,18.07
2023-01-31T00:31:27.228Z,14.37
2023-01-31T00:33:55.447Z,23.17
2023-01-31T00:36:28.601Z,8.27
2023-01-31T00:38:57.464Z,19.37
2023-01-31T00:41:26.942Z,30.77
2023-01-31T00:43:53.975Z,18.83
2023-01-31T00:46:21.114Z,15.40
2023-01-31T00:48:48.791Z,18.07
2023-01-31T00:51:15.577Z,8.90
2023-01-31T00:53:42.473Z,26.47
2023-01-31T00:56:15.713Z,26.57
2023-01-31T00:58:42.751Z,10.63
2023-01-31T01:01:15.350Z,19.23
2023-01-31T01:03:43.849Z,22.60
2023-01-31T01:06:11.943Z,15.33
2023-01-31T01:08:40.615Z,18.40
2023-01-31T01:11:13.436Z,16.33
2023-01-31T01:13:41.214Z,13.30
2023-01-31T01:16:25.929Z,9.30
2023-01-31T01:18:55.120Z,24.00
2023-01-31T01:21:28.101Z,17.43
2023-01-31T01:23:58.610Z,11.97
2023-01-31T01:26:30.993Z,14.30
2023-01-31T01:28:59.557Z,27.10
2023-01-31T01:31:30.609Z,20.60
2023-01-31T01:34:03.567Z,13.90
2023-01-31T01:36:34.686Z,19.53
2023-01-31T01:39:01.945Z,24.00
2023-01-31T01:41:28.824Z,21.83
2023-01-31T01:43:59.890Z,14.80
2023-01-31T01:46:56.045Z,12.43
2023-01-31T01:49:36.796Z,28.57
2023-01-31T01:52:06.683Z,12.50
2023-01-31T01:54:55.764Z,10.60
2023-01-31T01:57:29.215Z,26.20
2023-01-31T02:00:13.253Z,28.37
2023-01-31T02:02:40.720Z,16.10
2023-01-31T02:05:08.846Z,18.73
2023-01-31T02:07:36.006Z,20.43
2023-01-31T02:10:28.140Z,20.57
2023-01-31T02:12:58.672Z,14.77
2023-01-31T02:15:25.925Z,20.50
2023-01-31T02:17:53.944Z,17.10
2023-01-31T02:20:38.391Z,18.23
2023-01-31T02:23:29.946Z,26.87
2023-01-31T02:26:24.496Z,16.37
2023-01-31T02:29:00.447Z,15.43
2023-01-31T02:39:53.290Z,24.20
2023-01-31T02:42:35.007Z,18.87
2023-01-31T02:45:11.699Z,16.97
2023-01-31T02:47:51.429Z,22.57
2023-01-31T02:51:01.823Z,19.50
2023-01-31T02:53:36.699Z,17.50
2023-01-31T02:56:17.983Z,19.90
2023-01-31T02:58:55.364Z,23.40
2023-01-31T03:01:35.328Z,16.27
2023-01-31T03:04:05.021Z,26.77
2023-01-31T03:06:33.745Z,20.83
2023-01-31T03:09:06.781Z,26.73
2023-01-31T03:11:49.333Z,21.87
2023-01-31T03:17:34.462Z,19.17
2023-01-31T03:20:15.958Z,24.43
2023-01-31T03:22:51.092Z,21.30
2023-01-31T03:25:22.061Z,23.53
2023-01-31T03:27:52.856Z,23.23
2023-01-31T03:30:43.236Z,19.93
2023-01-31T03:33:32.731Z,24.10
2023-01-31T03:36:33.549Z,31.00
2023-01-31T03:39:24.395Z,25.70
2023-01-31T03:42:02.930Z,32.43
2023-01-31T03:44:42.513Z,23.80
2023-01-31T03:47:16.693Z,24.50
2023-01-31T03:49:45.103Z,31.00
2023-01-31T03:52:17.355Z,18.90
2023-01-31T03:54:50.925Z,25.90
2023-01-31T03:57:30.046Z,19.10
2023-01-31T03:59:59.471Z,21.70
2023-01-31T04:02:33.281Z,22.67
2023-01-31T04:05:14.814Z,20.00
2023-01-31T04:07:42.873Z,24.33
2023-01-31T04:10:19.967Z,19.37
2023-01-31T04:12:47.588Z,22.53
2023-01-31T04:15:15.880Z,33.63
2023-01-31T04:17:42.749Z,20.77
2023-01-31T04:20:10.919Z,28.90
2023-01-31T04:22:38.092Z,28.87
2023-01-31T04:25:05.988Z,21.53
2023-01-31T04:27:33.311Z,23.77
2023-01-31T04:30:00.196Z,24.63
2023-01-31T04:32:28.573Z,20.27
2023-01-31T04:34:55.344Z,20.93
2023-01-31T04:37:22.308Z,21.60
2023-01-31T04:39:50.129Z,32.30
2023-01-31T04:42:17.093Z,24.13
2023-01-31T04:44:43.916Z,24.83
2023-01-31T04:47:10.653Z,30.33
2023-01-31T04:49:37.404Z,14.60
2023-01-31T04:52:04.290Z,22.93
2023-01-31T04:54:31.603Z,12.93
2023-01-31T04:56:58.473Z,15.20
2023-01-31T04:59:25.313Z,25.13
2023-01-31T05:01:52.116Z,25.77
2023-01-31T05:04:19.056Z,17.73
2023-01-31T05:06:45.818Z,19.33
2023-01-31T05:09:13.016Z,18.60
2023-01-31T05:11:39.950Z,28.10
2023-01-31T05:14:07.000Z,26.00
2023-01-31T05:16:33.744Z,27.73
2023-01-31T05:19:01.361Z,23.80
2023-01-31T05:21:28.265Z,32.70
2023-01-31T05:23:55.152Z,36.67
2023-01-31T05:26:21.958Z,17.53
2023-01-31T05:28:48.824Z,27.00
2023-01-31T05:31:15.841Z,16.30
2023-01-31T05:33:43.164Z,31.67
2023-01-31T05:36:09.937Z,29.83
2023-01-31T05:38:37.093Z,25.80
2023-01-31T05:41:04.145Z,25.17
2023-01-31T05:43:31.293Z,21.57
2023-01-31T05:45:58.443Z,29.10
2023-01-31T05:48:25.272Z,27.50
2023-01-31T05:50:52.026Z,25.00
2023-01-31T05:53:19.088Z,20.43
2023-01-31T05:55:45.931Z,48.57
2023-01-31T05:58:12.695Z,29.50
2023-01-31T06:00:39.595Z,25.37
2023-01-31T06:03:06.471Z,22.53
2023-01-31T06:05:33.880Z,20.17
2023-01-31T06:08:00.694Z,22.43
2023-01-31T06:10:27.511Z,24.30
2023-01-31T06:12:54.260Z,23.30
2023-01-31T06:15:21.421Z,26.73
2023-01-31T06:17:48.375Z,25.37
2023-01-31T06:20:15.221Z,20.43
2023-01-31T06:22:42.396Z,31.37
2023-01-31T06:25:09.874Z,19.60
2023-01-31T06:27:36.650Z,20.93
2023-01-31T06:30:03.751Z,23.83
2023-01-31T06:32:30.603Z,26.27
2023-01-31T06:34:57.489Z,30.00
2023-01-31T06:37:24.320Z,18.40
2023-01-31T06:39:51.089Z,21.43
2023-01-31T06:42:17.797Z,26.53
2023-01-31T06:44:44.577Z,31.00
2023-01-31T06:47:13.016Z,24.90
2023-01-31T06:49:39.826Z,27.17
2023-01-31T06:52:06.666Z,28.97
2023-01-31T06:54:33.397Z,27.97
2023-01-31T06:57:00.201Z,14.77
2023-01-31T06:59:26.928Z,27.40
2023-01-31T07:01:53.729Z,23.90
2023-01-31T07:04:20.514Z,16.40
2023-01-31T07:06:47.277Z,20.37
2023-01-31T07:09:14.142Z,16.83
2023-01-31T07:11:40.993Z,12.30
2023-01-31T07:14:07.891Z,19.17
2023-01-31T07:16:34.901Z,26.27
2023-01-31T07:19:01.765Z,19.53
2023-01-31T07:21:30.175Z,23.57
2023-01-31T07:23:57.063Z,17.10
2023-01-31T07:26:23.843Z,14.23
2023-01-31T07:28:51.925Z,20.77
2023-01-31T07:31:18.986Z,12.23
2023-01-31T07:33:45.784Z,18.50
2023-01-31T07:36:15.043Z,14.73
2023-01-31T07:38:42.525Z,20.70
2023-01-31T07:41:10.895Z,12.47
2023-01-31T07:43:37.977Z,13.20
2023-01-31T07:46:11.622Z,24.40
2023-01-31T07:48:38.879Z,18.83
2023-01-31T07:51:06.012Z,19.97
2023-01-31T07:53:35.783Z,21.27
2023-01-31T07:56:17.582Z,13.97
2023-01-31T07:58:46.086Z,19.67
2023-01-31T08:01:40.643Z,8.83
2023-01-31T08:04:20.560Z,12.33
2023-01-31T08:06:49.787Z,15.87
2023-01-31T08:09:16.655Z,28.57
2023-01-31T08:11:43.524Z,11.80
2023-01-31T08:14:13.449Z,12.83
2023-01-31T08:33:34.409Z,15.17
2023-01-31T08:36:23.462Z,10.73
2023-01-31T08:38:51.001Z,16.13
2023-01-31T08:41:20.390Z,12.80
2023-01-31T08:43:58.285Z,13.67
2023-01-31T08:46:27.712Z,13.07
2023-01-31T08:48:54.751Z,10.53
2023-01-31T08:51:22.096Z,16.00
2023-01-31T08:53:49.315Z,13.30
2023-01-31T08:56:16.518Z,8.30
2023-01-31T08:58:44.444Z,18.90
2023-01-31T09:01:14.013Z,6.60
2023-01-31T09:03:43.762Z,18.03
2023-01-31T09:09:16.856Z,12.50
2023-01-31T09:12:30.230Z,14.50
2023-01-31T09:14:57.599Z,8.90
2023-01-31T09:17:24.345Z,9.20
2023-01-31T09:19:51.151Z,9.93
2023-01-31T09:22:18.053Z,8.73
2023-01-31T09:24:46.129Z,13.50
2023-01-31T09:27:13.291Z,12.10
2023-01-31T09:29:40.176Z,19.60
2023-01-31T09:32:07.790Z,14.87
2023-01-31T09:34:34.678Z,13.23
2023-01-31T09:37:01.447Z,16.37
2023-01-31T09:39:28.396Z,11.13
2023-01-31T09:42:11.119Z,11.47
2023-01-31T09:47:34.742Z,11.73
2023-01-31T09:50:23.789Z,33.30
2023-01-31T09:52:55.744Z,14.50
2023-01-31T09:55:35.145Z,7.57
2023-01-31T09:58:43.856Z,12.40
2023-01-31T10:01:25.517Z,11.57
2023-01-31T10:04:20.322Z,4.47
2023-01-31T10:06:52.941Z,16.90
2023-01-31T10:09:44.296Z,16.23
2023-01-31T10:12:39.355Z,24.77
2023-01-31T10:15:13.699Z,14.10
2023-01-31T10:17:50.302Z,11.67
2023-01-31T10:20:24.878Z,13.70
2023-01-31T10:23:20.014Z,14.47
2023-01-31T10:25:48.872Z,9.23
2023-01-31T10:28:33.461Z,12.00
2023-01-31T10:33:47.803Z,15.63
2023-01-31T10:36:43.155Z,12.47
2023-01-31T10:39:29.495Z,13.03
2023-01-31T10:42:02.356Z,8.33
2023-01-31T10:44:57.091Z,14.67
2023-01-31T10:47:34.794Z,12.57
2023-01-31T10:50:14.777Z,8.17
2023-01-31T10:52:53.213Z,9.80
2023-01-31T10:55:19.879Z,10.53
2023-01-31T10:57:47.277Z,18.40
2023-01-31T11:00:22.364Z,14.23
2023-01-31T11:02:49.783Z,10.80
2023-01-31T11:05:20.019Z,13.43
2023-01-31T11:07:47.384Z,8.53
2023-01-31T11:10:29.656Z,10.00
2023-01-31T11:13:09.684Z,18.37
2023-01-31T11:15:39.601Z,10.63
2023-01-31T11:18:08.793Z,9.30
2023-01-31T11:20:46.383Z,8.17
2023-01-31T11:23:17.694Z,7.50
2023-01-31T11:25:49.744Z,13.07
2023-01-31T11:28:21.738Z,10.27
2023-01-31T11:30:51.292Z,12.47
2023-01-31T11:33:38.300Z,10.20
2023-01-31T11:36:13.662Z,15.80
2023-01-31T11:38:40.938Z,12.10
2023-01-31T11:41:27.245Z,13.10
2023-01-31T11:44:17.012Z,15.07
2023-01-31T11:47:00.132Z,17.67
2023-01-31T11:49:32.592Z,10.40
2023-01-31T11:52:20.311Z,8.73
2023-01-31T11:54:55.076Z,14.17
2023-01-31T11:57:28.718Z,17.20
2023-01-31T11:59:58.455Z,30.03
2023-01-31T12:02:40.444Z,7.40
2023-01-31T12:05:17.486Z,13.50
2023-01-31T12:07:50.354Z,13.43
2023-01-31T12:10:28.544Z,15.33
2023-01-31T12:13:16.478Z,13.37
2023-01-31T12:15:56.275Z,9.70
2023-01-31T12:18:28.555Z,14.77
2023-01-31T12:21:21.396Z,11.53
2023-01-31T12:24:06.879Z,21.33
2023-01-31T12:26:55.011Z,13.13
2023-01-31T12:29:33.725Z,16.63
2023-01-31T12:32:06.299Z,10.90
2023-01-31T12:35:00.721Z,15.43
2023-01-31T12:37:58.090Z,21.13
2023-01-31T12:40:34.180Z,9.77
2023-01-31T12:43:04.051Z,10.50
2023-01-31T12:45:54.652Z,9.37
2023-01-31T12:48:45.155Z,16.53
2023-01-31T12:51:36.708Z,16.30
2023-01-31T12:54:22.318Z,16.00
2023-01-31T12:56:49.006Z,11.07
2023-01-31T12:59:26.697Z,11.47
2023-01-31T13:02:08.394Z,9.97
2023-01-31T13:04:45.924Z,11.87
2023-01-31T13:07:35.814Z,21.80
2023-01-31T13:10:07.170Z,8.50
2023-01-31T13:12:36.288Z,17.10
2023-01-31T13:15:24.742Z,26.17
2023-01-31T13:17:59.496Z,21.53
2023-01-31T13:20:33.450Z,30.70
2023-01-31T13:23:04.181Z,16.27
2023-01-31T13:25:50.898Z,22.77
2023-01-31T13:28:28.710Z,26.70
2023-01-31T13:33:51.059Z,19.70
2023-01-31T13:36:40.814Z,18.67
2023-01-31T13:39:23.778Z,31.67
2023-01-31T13:41:53.751Z,12.70
2023-01-31T13:44:21.138Z,23.20
2023-01-31T13:47:01.468Z,21.27
2023-01-31T13:49:31.092Z,23.07
2023-01-31T13:52:00.490Z,21.77
2023-01-31T13:54:31.817Z,27.87
2023-01-31T13:57:00.352Z,24.30
2023-01-31T13:59:33.857Z,31.73
2023-01-31T14:02:04.170Z,24.53
2023-01-31T14:04:34.892Z,15.13
2023-01-31T14:07:07.720Z,18.73
2023-01-31T14:09:43.970Z,37.63
2023-01-31T14:12:10.739Z,29.90
2023-01-31T14:14:45.530Z,17.53
2023-01-31T14:17:28.517Z,22.80
2023-01-31T14:20:01.292Z,25.60
2023-01-31T14:22:33.310Z,22.37
2023-01-31T14:25:03.990Z,25.33
2023-01-31T14:27:40.194Z,31.97
2023-01-31T14:30:07.318Z,25.70
2023-01-31T14:32:47.243Z,23.10
2023-01-31T14:35:16.898Z,13.60
2023-01-31T14:38:03.335Z,18.30
2023-01-31T14:40:53.129Z,19.17
2023-01-31T14:43:47.299Z,17.17
2023-01-31T14:46:41.196Z,22.17
2023-01-31T14:49:26.930Z,24.63
2023-01-31T14:52:21.989Z,21.80
2023-01-31T14:55:25.926Z,23.03
2023-01-31T14:58:00.361Z,17.50
2023-01-31T15:00:31.794Z,18.10
2023-01-31T15:03:07.390Z,32.63
2023-01-31T15:05:37.601Z,18.17
2023-01-31T15:08:27.093Z,27.40
2023-01-31T15:11:06.898Z,21.27
2023-01-31T15:13:50.664Z,29.23
2023-01-31T15:16:32.585Z,16.20
2023-01-31T15:19:18.458Z,18.07
2023-01-31T15:21:56.675Z,17.20
2023-01-31T15:24:33.110Z,23.33
2023-01-31T15:27:02.376Z,17.07
2023-01-31T15:29:44.431Z,21.53
2023-01-31T15:32:23.775Z,17.73
2023-01-31T15:35:22.526Z,19.30
2023-01-31T15:38:15.643Z,21.27
2023-01-31T15:40:42.464Z,19.67
2023-01-31T15:43:22.554Z,15.57
2023-01-31T15:45:52.521Z,23.87
2023-01-31T15:48:22.931Z,15.23
2023-01-31T15:50:58.772Z,22.80
2023-01-31T15:53:28.272Z,16.93
2023-01-31T15:55:58.777Z,16.77
2023-01-31T15:58:28.254Z,15.47
2023-01-31T16:00:57.754Z,23.60
2023-01-31T16:03:27.342Z,22.73
2023-01-31T16:05:59.260Z,24.83
2023-01-31T16:08:39.741Z,22.80
2023-01-31T16:11:09.963Z,28.40
2023-01-31T16:13:42.844Z,18.10
2023-01-31T16:16:11.232Z,32.80
2023-01-31T16:18:38.598Z,22.83
2023-01-31T16:21:23.804Z,29.23
2023-01-31T16:24:16.514Z,24.60
2023-01-31T16:27:09.679Z,28.10
2023-01-31T16:29:46.082Z,20.97
2023-01-31T16:32:37.015Z,29.43
2023-01-31T16:35:07.439Z,30.60
2023-01-31T16:37:37.900Z,28.10
2023-01-31T16:40:22.077Z,23.07
2023-01-31T16:42:49.207Z,25.90
2023-01-31T16:45:31.714Z,30.80
2023-01-31T16:48:21.975Z,36.53
2023-01-31T16:50:54.030Z,32.43
2023-01-31T16:53:33.667Z,31.73
2023-01-31T16:56:19.870Z,40.63
2023-01-31T16:58:57.601Z,37.23
2023-01-31T17:01:30.429Z,30.00
2023-01-31T17:04:11.136Z,32.10
2023-01-31T17:06:38.810Z,31.90
2023-01-31T17:09:09.320Z,36.80
2023-01-31T17:11:43.682Z,28.43
2023-01-31T17:14:11.303Z,24.90
2023-01-31T17:16:38.366Z,32.63
2023-01-31T17:19:05.427Z,26.97
2023-01-31T17:21:38.809Z,49.97
2023-01-31T17:24:05.816Z,32.63
2023-01-31T17:26:32.713Z,31.03
2023-01-31T17:29:02.460Z,46.17
2023-01-31T17:31:29.780Z,46.77
2023-01-31T17:33:56.759Z,33.33
2023-01-31T17:36:24.042Z,43.37
2023-01-31T17:38:52.652Z,33.20
2023-01-31T17:41:21.324Z,40.27
2023-01-31T17:43:48.231Z,33.23
2023-01-31T17:46:17.511Z,37.80
2023-01-31T17:48:44.922Z,36.70
2023-01-31T17:51:12.256Z,35.87
2023-01-31T17:53:47.926Z,29.53
2023-01-31T17:56:16.664Z,48.17
2023-01-31T17:58:43.466Z,43.43
2023-01-31T18:01:13.800Z,29.40
2023-01-31T18:03:40.827Z,37.60
2023-01-31T18:06:08.853Z,38.33
2023-01-31T18:08:35.890Z,44.03
2023-01-31T18:11:04.881Z,46.33
2023-01-31T18:13:31.688Z,49.53
2023-01-31T18:16:11.919Z,47.30
2023-01-31T18:18:43.820Z,45.03
2023-01-31T18:21:19.846Z,35.80
2023-01-31T18:23:54.978Z,45.20
2023-01-31T18:26:23.336Z,39.13
2023-01-31T18:28:50.596Z,44.03
2023-01-31T18:31:19.952Z,43.83
2023-01-31T18:33:50.017Z,37.87
2023-01-31T18:36:21.613Z,34.97
2023-01-31T18:38:51.860Z,49.10
2023-01-31T18:41:43.558Z,34.67
2023-01-31T18:44:21.462Z,36.60
2023-01-31T18:46:55.389Z,32.70
2023-01-31T18:49:25.630Z,33.73
2023-01-31T18:51:52.737Z,45.97
2023-01-31T18:54:19.767Z,29.77
2023-01-31T18:56:46.941Z,28.73
2023-01-31T18:59:18.748Z,36.17
2023-01-31T19:01:45.748Z,29.87
2023-01-31T19:04:29.404Z,28.93
2023-01-31T19:07:13.127Z,31.83
2023-01-31T19:09:43.494Z,26.80
2023-01-31T19:12:10.871Z,17.43
2023-01-31T19:14:43.717Z,12.03
2023-01-31T19:17:11.009Z,6.00
2023-01-31T19:22:29.965Z,8.50
2023-01-31T19:24:57.693Z,22.97
2023-01-31T19:27:25.785Z,12.13
2023-01-31T19:32:39.348Z,12.80
2023-01-31T19:35:07.996Z,13.83
2023-01-31T19:37:38.054Z,12.70
2023-01-31T19:40:05.362Z,16.40
2023-01-31T19:42:32.222Z,9.07
2023-01-31T19:44:59.003Z,7.87
2023-01-31T19:47:25.894Z,14.73
2023-01-31T19:49:53.177Z,16.20
2023-01-31T19:52:19.981Z,16.73
2023-01-31T19:54:47.069Z,16.13
2023-01-31T19:57:13.798Z,16.23
2023-01-31T19:59:41.261Z,16.43
2023-01-31T20:02:10.454Z,21.10
2023-01-31T20:04:37.236Z,21.37
2023-01-31T20:07:04.049Z,23.60
2023-01-31T20:09:30.841Z,29.80
2023-01-31T20:11:57.615Z,25.53
2023-01-31T20:14:31.825Z,25.00
2023-01-31T20:16:58.632Z,45.40
2023-01-31T20:19:25.503Z,39.57
2023-01-31T20:21:54.361Z,47.00
2023-01-31T20:24:21.321Z,49.07
2023-01-31T20:26:48.143Z,35.13
2023-01-31T20:29:15.403Z,37.70
2023-01-31T20:31:45.496Z,33.27
2023-01-31T20:34:13.462Z,41.33
2023-01-31T20:36:49.318Z,37.97
2023-01-31T20:39:17.524Z,45.63
2023-01-31T20:41:44.371Z,35.20
2023-01-31T20:44:16.419Z,36.30
2023-01-31T20:46:49.397Z,38.70
2023-01-31T20:49:27.311Z,32.13
2023-01-31T20:51:55.351Z,30.50
2023-01-31T20:54:22.240Z,49.50
2023-01-31T20:56:49.155Z,37.97
2023-01-31T20:59:16.130Z,41.90
2023-01-31T21:01:49.873Z,30.43
2023-01-31T21:04:27.841Z,34.43
2023-01-31T21:07:05.955Z,48.20
2023-01-31T21:09:32.845Z,36.57
2023-01-31T21:11:59.679Z,34.47
2023-01-31T21:14:31.821Z,28.47
2023-01-31T21:17:04.841Z,41.57
2023-01-31T21:19:31.651Z,28.57
2023-01-31T21:21:58.422Z,26.90
2023-01-31T21:24:32.450Z,35.07
2023-01-31T21:26:59.336Z,29.00
2023-01-31T21:29:26.163Z,30.73
2023-01-31T21:31:56.901Z,40.73
2023-01-31T21:34:27.072Z,29.33
2023-01-31T21:37:00.181Z,42.30
2023-01-31T21:39:26.949Z,45.00
2023-01-31T21:42:12.469Z,33.07
2023-01-31T21:44:39.209Z,40.83
2023-01-31T21:47:05.982Z,37.63
2023-01-31T21:49:32.700Z,42.10
2023-01-31T21:51:59.435Z,49.87
2023-01-31T21:54:26.380Z,31.73
2023-01-31T21:56:53.103Z,51.43
2023-01-31T21:59:20.001Z,37.83
2023-01-31T22:01:46.830Z,39.93
2023-01-31T22:04:14.527Z,39.27
2023-01-31T22:06:57.266Z,33.80
2023-01-31T22:09:24.172Z,30.83
2023-01-31T22:11:53.011Z,41.10
2023-01-31T22:14:20.287Z,28.83
2023-01-31T22:16:47.225Z,31.90
2023-01-31T22:19:14.618Z,34.07
2023-01-31T22:21:42.801Z,34.70
2023-01-31T22:24:11.655Z,32.53
2023-01-31T22:26:41.330Z,29.57
2023-01-31T22:29:16.680Z,34.23
2023-01-31T22:31:47.008Z,38.27
2023-01-31T22:34:15.770Z,34.53
2023-01-31T22:36:45.528Z,31.80
2023-01-31T22:39:16.297Z,28.87
2023-01-31T22:41:47.458Z,30.83
2023-01-31T22:44:17.064Z,24.40
2023-01-31T22:46:45.085Z,29.20
2023-01-31T22:49:15.792Z,38.60
2023-01-31T22:51:42.812Z,32.77
2023-01-31T22:54:16.543Z,35.70
2023-01-31T22:56:44.342Z,36.30
2023-01-31T22:59:18.230Z,20.93
2023-01-31T23:01:45.508Z,31.70
2023-01-31T23:04:17.574Z,23.90
2023-01-31T23:06:48.218Z,27.83
2023-01-31T23:09:15.519Z,31.13
2023-01-31T23:11:42.598Z,30.83
2023-01-31T23:14:12.268Z,28.77
2023-01-31T23:16:57.618Z,20.87
2023-01-31T23:19:24.366Z,26.20
2023-01-31T23:21:51.172Z,19.23
2023-01-31T23:24:19.273Z,32.90
2023-01-31T23:26:49.360Z,26.27
2023-01-31T23:29:17.646Z,21.40
2023-01-31T23:31:44.610Z,30.40
2023-01-31T23:34:11.449Z,20.10
2023-01-31T23:36:38.612Z,26.27
2023-01-31T23:39:05.603Z,26.97
2023-01-31T23:41:32.395Z,30.37
2023-01-31T23:43:59.250Z,31.27
2023-01-31T23:46:25.996Z,18.90
2023-01-31T23:48:52.855Z,30.23
2023-01-31T23:51:19.765Z,26.33
2023-01-31T23:53:53.865Z,18.10
2023-01-31T23:56:20.694Z,23.57
2023-01-31T23:58:47.484Z,26.33
